Data for 09/27/2014

Time Sea-Level Adjusted Pressure Absolute Pressure Temperature Relative Humidity Dew Point   
(mb) (inHg) (mb) (inHg) (C) (F) (%) (C) (F)
00:05 1021 30.15 850 25.1 11 51.8 87 9 48.2
00:10 1021 30.15 850 25.1 11 51.9 88 9.2 48.5
00:15 1021 30.15 850 25.1 11.1 51.9 87 9 48.1
00:20 1021 30.15 850 25.1 11.2 52.2 89 9.4 49
00:25 1021 30.15 850 25.1 11.2 52.1 89 9.5 49.1
00:30 1021 30.15 850 25.1 11.2 52.1 90 9.5 49.1
00:35 1020 30.12 850 25.1 11.1 52 90 9.6 49.2
00:40 1020 30.12 849 25.07 10.9 51.6 91 9.4 49
00:45 1020 30.12 849 25.07 10.7 51.2 90 9.2 48.5
00:50 1020 30.12 849 25.07 10.6 51.1 91 9.2 48.6
00:55 1020 30.12 849 25.07 10.7 51.2 91 9.2 48.6
01:00 1020 30.12 849 25.07 10.8 51.5 89 9.1 48.4
01:05 1019 30.09 848 25.04 11.1 51.9 85 8.6 47.5
01:10 1019 30.09 848 25.04 11.3 52.4 84 8.8 47.8
01:15 1019 30.09 848 25.04 11.3 52.3 85 8.8 47.8
01:20 1019 30.09 848 25.04 11.2 52.1 85 8.8 47.9
01:25 1019 30.09 848 25.04 11.2 52.2 85 8.8 47.8
01:30 1019 30.09 849 25.07 11.3 52.3 85 8.9 48
01:35 1020 30.12 849 25.07 11.4 52.4 84 8.8 47.8
01:40 1019 30.09 849 25.07 11.5 52.7 83 8.8 47.8
01:45 1019 30.09 849 25.07 11.6 53 84 9 48.3
01:50 1020 30.12 849 25.07 11.7 53.1 83 9 48.2
01:55 1020 30.12 849 25.07 11.9 53.5 82 9 48.3
02:00 1019 30.09 849 25.07 12 53.6 82 9 48.1
02:05 1019 30.09 849 25.07 11.9 53.5 82 9.1 48.3
02:10 1019 30.09 848 25.04 11.8 53.3 84 9.3 48.7
02:15 1019 30.09 849 25.07 11.6 52.9 84 9.1 48.3
02:20 1019 30.09 849 25.07 11.6 52.9 85 9.2 48.5
02:25 1019 30.09 849 25.07 11.6 52.8 85 9.1 48.4
02:30 1020 30.12 849 25.07 11.5 52.8 86 9.3 48.7
02:35 1020 30.12 849 25.07 11.4 52.6 86 9.2 48.5
02:40 1020 30.12 849 25.07 11.4 52.5 87 9.3 48.8
02:45 1020 30.12 849 25.07 11.3 52.4 87 9.3 48.7
02:50 1020 30.12 849 25.07 11.5 52.6 85 9 48.3
02:55 1020 30.12 849 25.07 11.5 52.6 86 9.2 48.6
03:00 1020 30.12 849 25.07 11.4 52.5 86 9.1 48.3
03:05 1019 30.09 849 25.07 11.3 52.4 87 9.2 48.6
03:10 1019 30.09 849 25.07 11.3 52.3 86 9.1 48.3
03:15 1019 30.09 849 25.07 11.3 52.3 87 9.2 48.6
03:20 1019 30.09 848 25.04 11.2 52.1 87 9.1 48.3
03:25 1019 30.09 848 25.04 11.1 52 87 9.1 48.3
03:30 1019 30.09 848 25.04 11.1 51.9 86 8.8 47.8
03:35 1019 30.09 848 25.04 11 51.8 87 8.9 48
03:40 1019 30.09 848 25.04 10.9 51.6 87 8.8 47.9
03:45 1019 30.09 848 25.04 10.8 51.4 86 8.6 47.5
03:50 1019 30.09 848 25.04 10.8 51.4 86 8.6 47.4
03:55 1019 30.09 848 25.04 10.7 51.3 85 8.4 47.1
04:00 1019 30.09 848 25.04 10.7 51.3 85 8.4 47.1
04:05 1019 30.09 848 25.04 10.7 51.2 85 8.3 47
04:10 1019 30.09 848 25.04 10.6 51.1 85 8.1 46.6
04:15 1019 30.09 848 25.04 10.5 50.9 85 8 46.5
04:20 1019 30.09 848 25.04 10.6 51 84 8 46.4
04:25 1019 30.09 848 25.04 10.6 51.1 82 7.8 46
04:30 1019 30.09 848 25.04 10.7 51.2 82 7.8 46.1
04:35 1019 30.09 848 25.04 10.7 51.2 81 7.6 45.7
04:40 1019 30.09 848 25.04 10.7 51.2 82 7.7 45.9
04:45 1019 30.09 848 25.04 10.7 51.2 81 7.6 45.6
04:50 1019 30.09 848 25.04 10.7 51.3 81 7.6 45.7
04:55 1019 30.09 848 25.04 10.6 51.1 82 7.7 45.8
05:00 1019 30.09 848 25.04 10.5 51 83 7.8 46.1
05:05 1019 30.09 848 25.04 10.4 50.7 84 7.7 45.9
05:10 1019 30.09 848 25.04 10.4 50.7 83 7.7 45.9
05:15 1019 30.09 848 25.04 10.4 50.8 83 7.7 45.9
05:20 1019 30.09 848 25.04 10.4 50.6 85 7.9 46.3
05:25 1019 30.09 848 25.04 10.2 50.4 86 7.9 46.3
05:30 1019 30.09 849 25.07 10.1 50.2 87 8 46.4
05:35 1020 30.12 849 25.07 10.1 50.1 86 7.9 46.2
05:40 1019 30.09 849 25.07 10.1 50.1 87 8 46.4
05:45 1019 30.09 849 25.07 10 49.9 88 8.1 46.6
05:50 1019 30.09 849 25.07 9.9 49.7 89 8.1 46.5
05:55 1019 30.09 849 25.07 9.8 49.7 88 8 46.3
06:00 1019 30.09 848 25.04 10 49.9 87 7.9 46.3
06:05 1019 30.09 848 25.04 10.1 50.1 86 7.9 46.2
06:10 1019 30.09 849 25.07 10.1 50.2 86 7.8 46.1
06:15 1020 30.12 849 25.07 10.1 50.2 86 8 46.3
06:20 1020 30.12 849 25.07 10.1 50.2 86 7.9 46.2
06:25 1020 30.12 849 25.07 10.1 50.2 86 7.9 46.2
06:30 1020 30.12 849 25.07 10.1 50.2 86 7.9 46.3
06:35 1020 30.12 849 25.07 10.1 50.1 87 8 46.5
06:40 1020 30.12 849 25.07 10 50 87 8 46.4
06:45 1020 30.12 849 25.07 10 49.9 88 8.1 46.6
06:50 1020 30.12 849 25.07 10 50 88 8 46.5
06:55 1020 30.12 849 25.07 9.9 49.9 88 8 46.4
07:00 1020 30.12 849 25.07 10 49.9 86 7.8 46
07:05 1020 30.12 849 25.07 10.1 50.1 87 8 46.3
07:10 1020 30.12 849 25.07 10.1 50.1 86 7.9 46.3
07:15 1020 30.12 849 25.07 10 50.1 86 7.8 46.1
07:20 1020 30.12 849 25.07 10.1 50.1 85 7.7 45.9
07:25 1020 30.12 849 25.07 10.2 50.3 84 7.6 45.6
07:30 1019 30.09 849 25.07 10.3 50.5 82 7.2 45
07:35 1019 30.09 849 25.07 10.2 50.4 82 7.3 45.2
07:40 1019 30.09 849 25.07 10.1 50.2 81 7 44.6
07:45 1019 30.09 849 25.07 10.2 50.3 80 6.9 44.4
07:50 1019 30.09 848 25.04 10.2 50.3 79 6.7 44.1
07:55 1019 30.09 848 25.04 10.3 50.5 76 6.3 43.4
08:00 1019 30.09 848 25.04 10.4 50.7 78 6.7 44.1
08:05 1019 30.09 848 25.04 10.3 50.5 76 6.4 43.4
08:10 1019 30.09 848 25.04 10.3 50.5 76 6.2 43.2
08:15 1019 30.09 849 25.07 10.4 50.7 76 6.5 43.6
08:20 1019 30.09 849 25.07 10.3 50.6 77 6.5 43.7
08:25 1019 30.09 849 25.07 10.3 50.5 76 6.3 43.3
08:30 1019 30.09 849 25.07 10.3 50.5 75 6.1 42.9
08:35 1019 30.09 849 25.07 10.4 50.6 73 5.7 42.3
08:40 1020 30.12 849 25.07 10.4 50.8 73 5.9 42.6
08:45 1020 30.12 849 25.07 10.3 50.6 74 5.9 42.6
08:50 1020 30.12 849 25.07 10.3 50.5 71 5.2 41.4
08:55 1020 30.12 849 25.07 10.3 50.5 71 5.3 41.5
09:00 1020 30.12 849 25.07 10.3 50.6 68 4.8 40.6
09:05 1020 30.12 849 25.07 10.4 50.6 67 4.6 40.2
09:10 1020 30.12 850 25.1 10.3 50.6 68 4.8 40.6
09:15 1021 30.15 850 25.1 10.2 50.4 69 4.8 40.6
09:20 1021 30.15 850 25.1 10 50.1 70 4.8 40.7
09:25 1021 30.15 850 25.1 9.8 49.7 72 5.1 41.1
09:30 1021 30.15 850 25.1 9.6 49.3 72 4.9 40.8
09:35 1021 30.15 850 25.1 9.5 49 74 5 41
09:40 1021 30.15 850 25.1 9.3 48.8 75 5.1 41.1
09:45 1021 30.15 850 25.1 9.2 48.5 76 5.1 41.2
09:50 1021 30.15 850 25.1 9 48.3 77 5.2 41.3
09:55 1021 30.15 850 25.1 9 48.2 78 5.3 41.6
10:00 1021 30.15 850 25.1 8.9 48 79 5.4 41.7
10:05 1021 30.15 850 25.1 8.8 47.9 79 5.4 41.8
10:10 1021 30.15 850 25.1 8.8 47.9 78 5.3 41.5
10:15 1021 30.15 850 25.1 8.9 47.9 79 5.4 41.7
10:20 1020 30.12 850 25.1 8.9 48 78 5.4 41.7
10:25 1020 30.12 850 25.1 9 48.3 78 5.4 41.8
10:30 1020 30.12 850 25.1 9.3 48.7 72 4.6 40.2
10:35 1020 30.12 850 25.1 9.5 49.1 74 5.2 41.3
10:40 1020 30.12 850 25.1 9.6 49.3 75 5.4 41.6
10:45 1020 30.12 850 25.1 9.8 49.6 72 5 40.9
10:50 1020 30.12 850 25.1 9.8 49.7 73 5.2 41.3
10:55 1020 30.12 850 25.1 10 50.1 71 5.1 41.2
11:00 1020 30.12 850 25.1 10.2 50.4 69 4.8 40.7
11:05 1020 30.12 850 25.1 10.4 50.6 67 4.6 40.2
11:10 1020 30.12 849 25.07 10.5 50.8 65 4.3 39.7
11:15 1020 30.12 849 25.07 10.5 51 65 4.3 39.7
11:20 1020 30.12 849 25.07 10.6 51.1 65 4.5 40
11:25 1020 30.12 849 25.07 10.7 51.2 64 4.3 39.7
11:30 1020 30.12 849 25.07 10.7 51.2 64 4.3 39.7
11:35 1020 30.12 849 25.07 10.8 51.4 64 4.3 39.7
11:40 1020 30.12 849 25.07 10.9 51.6 63 4.2 39.6
11:45 1020 30.12 849 25.07 10.9 51.7 61 3.8 38.9
11:50 1020 30.12 849 25.07 11.1 51.9 62 4 39.2
11:55 1020 30.12 849 25.07 11.3 52.4 59 3.6 38.4
12:00 1020 30.12 849 25.07 11.3 52.4 60 4 39.2
12:05 1020 30.12 849 25.07 11.3 52.4 58 3.5 38.3
12:10 1020 30.12 849 25.07 11.4 52.5 58 3.6 38.5
12:15 1020 30.12 849 25.07 11.4 52.6 60 3.9 39.1
12:20 1020 30.12 849 25.07 11.3 52.3 60 3.9 39
12:25 1020 30.12 849 25.07 11.5 52.7 60 4 39.1
12:30 1020 30.12 849 25.07 11.5 52.6 60 3.9 39.1
12:35 1020 30.12 849 25.07 11.4 52.5 60 3.9 39
12:40 1020 30.12 849 25.07 11.3 52.4 60 3.8 38.9
12:45 1020 30.12 849 25.07 11.2 52.1 60 3.7 38.6
12:50 1020 30.12 849 25.07 11.2 52.1 61 3.9 39
12:55 1020 30.12 849 25.07 11 51.9 61 3.9 39
13:00 1020 30.12 849 25.07 11 51.7 61 3.8 38.8
13:05 1020 30.12 849 25.07 11 51.8 61 3.8 38.8
13:10 1020 30.12 849 25.07 11 51.8 61 3.9 39
13:15 1020 30.12 849 25.07 11 51.7 62 4.1 39.3
13:20 1020 30.12 849 25.07 10.9 51.6 63 4.1 39.3
13:25 1020 30.12 849 25.07 10.8 51.5 63 4 39.3
13:30 1020 30.12 849 25.07 10.7 51.3 64 4.2 39.5
13:35 1020 30.12 849 25.07 10.6 51 65 4.2 39.5
13:40 1020 30.12 849 25.07 10.5 50.8 65 4.1 39.4
13:45 1020 30.12 849 25.07 10.4 50.7 65 4.2 39.5
13:50 1020 30.12 849 25.07 10.4 50.7 65 4 39.2
13:55 1020 30.12 850 25.1 10.3 50.6 65 4.1 39.3
14:00 1020 30.12 850 25.1 10.2 50.4 66 4.1 39.4
14:05 1020 30.12 850 25.1 10.2 50.3 66 4 39.2
14:10 1020 30.12 850 25.1 10.2 50.3 66 4.1 39.5
14:15 1020 30.12 850 25.1 10.2 50.3 67 4.3 39.7
14:20 1020 30.12 850 25.1 10.1 50.3 66 4.2 39.5
14:25 1021 30.15 850 25.1 10.1 50.2 68 4.6 40.3
14:30 1021 30.15 850 25.1 10 50 69 4.5 40.2
14:35 1021 30.15 850 25.1 9.9 49.8 69 4.6 40.2
14:40 1020 30.12 850 25.1 9.8 49.6 72 5 40.9
14:45 1020 30.12 850 25.1 9.7 49.4 72 5 41
14:50 1020 30.12 850 25.1 9.7 49.4 73 5.1 41.1
14:55 1020 30.12 850 25.1 9.6 49.4 73 5.1 41.2
15:00 1020 30.12 850 25.1 9.7 49.4 72 5 40.9
15:05 1020 30.12 850 25.1 9.8 49.6 72 5 41
15:10 1021 30.15 850 25.1 9.8 49.6 72 5.1 41.1
15:15 1021 30.15 850 25.1 9.8 49.6 71 4.9 40.8
15:20 1021 30.15 850 25.1 9.8 49.7 71 4.8 40.6
15:25 1021 30.15 850 25.1 9.8 49.7 72 5 41
15:30 1021 30.15 850 25.1 9.8 49.7 70 4.6 40.3
15:35 1020 30.12 850 25.1 9.9 49.8 69 4.5 40.1
15:40 1020 30.12 850 25.1 9.8 49.7 70 4.7 40.4
15:45 1020 30.12 850 25.1 9.8 49.7 70 4.6 40.3
15:50 1021 30.15 850 25.1 9.8 49.7 71 4.8 40.7
15:55 1021 30.15 850 25.1 9.7 49.4 72 4.9 40.9
16:00 1021 30.15 850 25.1 9.6 49.3 72 4.8 40.6
16:05 1021 30.15 850 25.1 9.6 49.3 72 4.8 40.6
16:10 1021 30.15 850 25.1 9.6 49.3 72 4.8 40.7
16:15 1021 30.15 850 25.1 9.6 49.2 73 4.9 40.9
16:20 1021 30.15 850 25.1 9.5 49.2 72 4.8 40.6
16:25 1021 30.15 850 25.1 9.7 49.4 72 4.8 40.7
16:30 1021 30.15 850 25.1 9.7 49.4 73 5 41
16:35 1021 30.15 850 25.1 9.8 49.6 72 5 41
16:40 1021 30.15 850 25.1 9.7 49.5 71 4.7 40.4
16:45 1021 30.15 850 25.1 9.8 49.7 72 5 41
16:50 1021 30.15 850 25.1 9.7 49.5 72 4.9 40.8
16:55 1021 30.15 850 25.1 9.7 49.4 72 5 40.9
17:00 1021 30.15 851 25.13 9.6 49.3 73 5 40.9
17:05 1021 30.15 850 25.1 9.6 49.2 73 5 40.9
17:10 1021 30.15 850 25.1 9.5 49.1 73 4.9 40.8
17:15 1021 30.15 851 25.13 9.6 49.2 73 4.9 40.9
17:20 1021 30.15 851 25.13 9.5 49.1 73 5 41
17:25 1021 30.15 851 25.13 9.4 49 74 5.1 41.1
17:30 1021 30.15 851 25.13 9.4 49 74 5 40.9
17:35 1021 30.15 851 25.13 9.4 49 74 5 41.1
17:40 1021 30.15 851 25.13 9.4 48.8 75 5.2 41.4
17:45 1021 30.15 851 25.13 9.2 48.5 78 5.5 41.9
17:50 1022 30.18 851 25.13 8.9 48 77 5.1 41.3
17:55 1022 30.18 851 25.13 8.8 47.8 76 4.9 40.8
18:00 1022 30.18 851 25.13 8.6 47.6 77 4.8 40.7
18:05 1022 30.18 851 25.13 8.5 47.2 77 4.6 40.3
18:10 1022 30.18 851 25.13 8.5 47.2 77 4.6 40.3
18:15 1022 30.18 851 25.13 8.4 47.1 77 4.5 40.2
18:20 1022 30.18 851 25.13 8.4 47.1 76 4.5 40
18:25 1022 30.18 851 25.13 8.4 47.2 76 4.5 40.2
18:30 1022 30.18 851 25.13 8.4 47.2 76 4.5 40.2
18:35 1022 30.18 851 25.13 8.4 47 77 4.5 40.1
18:40 1022 30.18 851 25.13 8.2 46.8 78 4.6 40.3
18:45 1022 30.18 851 25.13 8.1 46.6 78 4.5 40
18:50 1022 30.18 851 25.13 8 46.5 78 4.4 39.9
18:55 1022 30.18 852 25.16 8 46.5 77 4.3 39.7
19:00 1022 30.18 851 25.13 8.1 46.5 77 4.2 39.6
19:05 1022 30.18 851 25.13 8.1 46.6 76 4.1 39.5
19:10 1022 30.18 851 25.13 8.2 46.7 75 4.1 39.4
19:15 1022 30.18 851 25.13 8.2 46.7 76 4.1 39.5
19:20 1022 30.18 851 25.13 8.2 46.7 76 4.2 39.5
19:25 1022 30.18 851 25.13 8.2 46.7 75 4.1 39.3
19:30 1022 30.18 851 25.13 8.2 46.7 76 4.2 39.5
19:35 1022 30.18 851 25.13 8.2 46.7 75 4 39.1
19:40 1022 30.18 851 25.13 8.2 46.7 75 4.1 39.3
19:45 1022 30.18 852 25.16 8.1 46.6 75 4 39.3
19:50 1022 30.18 852 25.16 8.1 46.6 76 4.1 39.4
19:55 1022 30.18 852 25.16 8.1 46.6 76 4.1 39.4
20:00 1023 30.21 852 25.16 8.1 46.5 75 4 39.1
20:05 1022 30.18 852 25.16 8 46.5 75 3.9 39.1
20:10 1023 30.21 852 25.16 8 46.4 75 3.9 39
20:15 1023 30.21 852 25.16 8 46.4 75 3.9 39
20:20 1023 30.21 852 25.16 8 46.4 76 3.9 39.1
20:25 1023 30.21 852 25.16 8 46.4 75 3.9 39
20:30 1023 30.21 852 25.16 8 46.3 76 4 39.3
20:35 1023 30.21 852 25.16 7.9 46.3 77 4.1 39.3
20:40 1023 30.21 852 25.16 7.9 46.2 77 4.2 39.5
20:45 1023 30.21 852 25.16 7.9 46.2 77 4.2 39.5
20:50 1023 30.21 852 25.16 7.9 46.2 77 4.2 39.5
20:55 1023 30.21 852 25.16 7.9 46.3 77 4.2 39.6
21:00 1023 30.21 852 25.16 7.9 46.3 78 4.3 39.7
21:05 1023 30.21 852 25.16 7.9 46.3 77 4.2 39.6
21:10 1022 30.18 852 25.16 8 46.3 77 4.2 39.6
21:15 1022 30.18 852 25.16 8 46.3 77 4.3 39.7
21:20 1022 30.18 852 25.16 8 46.4 77 4.2 39.6
21:25 1022 30.18 852 25.16 8 46.4 77 4.3 39.7
21:30 1022 30.18 852 25.16 8 46.3 78 4.4 39.9
21:35 1023 30.21 852 25.16 7.9 46.3 77 4.2 39.6
21:40 1023 30.21 852 25.16 8 46.4 77 4.3 39.7
21:45 1023 30.21 852 25.16 8 46.3 77 4.2 39.6
21:50 1023 30.21 852 25.16 8.1 46.5 76 4.2 39.5
21:55 1023 30.21 852 25.16 8.1 46.5 77 4.3 39.7
22:00 1023 30.21 852 25.16 8.1 46.6 76 4.1 39.5
22:05 1023 30.21 852 25.16 8.1 46.6 75 4 39.2
22:10 1023 30.21 852 25.16 8.2 46.7 75 4.1 39.3
22:15 1023 30.21 852 25.16 8.1 46.6 76 4.1 39.3
22:20 1023 30.21 852 25.16 8 46.5 76 4.1 39.3
22:25 1023 30.21 852 25.16 8.1 46.5 75 4 39.2
22:30 1023 30.21 852 25.16 8.1 46.6 75 4 39.3
22:35 1023 30.21 852 25.16 8.1 46.6 75 4 39.3
22:40 1023 30.21 852 25.16 8.1 46.5 76 4.1 39.3
22:45 1023 30.21 852 25.16 8.1 46.5 77 4.2 39.6
22:50 1023 30.21 852 25.16 8 46.5 76 4.2 39.5
22:55 1023 30.21 852 25.16 8.1 46.6 77 4.3 39.7
23:00 1023 30.21 852 25.16 8.1 46.5 76 4.2 39.5
23:05 1023 30.21 852 25.16 8.1 46.7 76 4.3 39.7
23:10 1023 30.21 852 25.16 8.1 46.6 77 4.3 39.7
23:15 1023 30.21 852 25.16 8.1 46.6 76 4.3 39.7
23:20 1023 30.21 852 25.16 8.1 46.7 77 4.3 39.7
23:25 1022 30.18 852 25.16 8.1 46.6 77 4.3 39.7
23:30 1022 30.18 852 25.16 8.1 46.6 77 4.3 39.8
23:35 1022 30.18 852 25.16 8.1 46.6 77 4.4 40
23:40 1022 30.18 851 25.13 8 46.4 80 4.8 40.6
23:45 1022 30.18 851 25.13 7.8 46 82 4.9 40.9
23:50 1022 30.18 851 25.13 7.5 45.6 84 5.1 41.1
23:55 1022 30.18 851 25.13 7.4 45.4 85 5 41.1
24:00 1022 30.18 851 25.13 7.4 45.2 86 5.1 41.2